Time;durP1;ratioP1;P1;durP2;ratioP2;P2;SDS_P1;SDS_P2;PMS_P1;PMS_P2;Temp;Humidity;BMP_temperature;BMP_pressure;BME280_temperature;BME280_humidity;BME280_pressure;Samples;Min_cycle;Max_cycle;Signal;HPM_P1;HPM_P2
2022/04/23 00:02:15;;;;;;;17.83;11.18;;;10.10;99.90;;;;;;5019357;28;20036;-58
2022/04/23 00:04:40;;;;;;;19.60;11.90;;;10.10;99.90;;;;;;5010537;28;20026;-55
2022/04/23 00:07:06;;;;;;;15.48;11.93;;;10.10;99.90;;;;;;5010894;28;20030;-58
2022/04/23 00:09:32;;;;;;;14.82;10.68;;;10.10;99.90;;;;;;5009898;28;20028;-58
2022/04/23 00:11:58;;;;;;;14.70;11.23;;;10.10;99.90;;;;;;5009038;28;20624;-57
2022/04/23 00:14:25;;;;;;;18.85;12.65;;;10.10;99.90;;;;;;5010998;28;20025;-56
2022/04/23 00:16:51;;;;;;;17.17;12.23;;;10.10;99.90;;;;;;5011508;28;20038;-60
2022/04/23 00:19:17;;;;;;;17.00;11.52;;;10.10;99.90;;;;;;5009897;28;20025;-53
2022/04/23 00:21:43;;;;;;;17.63;12.93;;;10.00;99.90;;;;;;5008086;28;20517;-56
2022/04/23 00:24:09;;;;;;;15.32;12.07;;;10.00;99.90;;;;;;5009968;28;20026;-57
2022/04/23 00:26:34;;;;;;;16.60;11.68;;;9.90;99.90;;;;;;5007947;28;20033;-58
2022/04/23 00:29:00;;;;;;;17.00;11.85;;;9.90;99.90;;;;;;5007742;28;20287;-59
2022/04/23 00:31:26;;;;;;;18.17;12.55;;;9.90;99.90;;;;;;5011417;28;20037;-57
2022/04/23 00:33:52;;;;;;;20.15;13.60;;;9.90;99.90;;;;;;5015053;28;20069;-59
2022/04/23 00:36:18;;;;;;;15.57;12.32;;;9.80;99.90;;;;;;5010503;28;20033;-57
2022/04/23 00:38:45;;;;;;;19.58;12.63;;;9.70;99.90;;;;;;5014154;28;20553;-56
2022/04/23 00:41:46;;;;;;;17.70;12.23;;;9.60;99.90;;;;;;5015356;28;20033;-59
2022/04/23 00:44:02;;;;;;;19.35;14.45;;;9.60;99.90;;;;;;5008326;28;20025;-59
2022/04/23 00:46:27;;;;;;;20.55;13.45;;;9.50;99.90;;;;;;5009167;28;20026;-55
2022/04/23 00:48:53;;;;;;;18.10;12.85;;;9.60;99.90;;;;;;5013255;28;20037;-57
2022/04/23 00:51:19;;;;;;;17.90;12.88;;;9.50;99.90;;;;;;5009540;28;20037;-58
2022/04/23 00:53:49;;;;;;;18.95;14.48;;;9.50;99.90;;;;;;5009598;28;20106;-57
2022/04/23 00:56:16;;;;;;;20.33;14.77;;;9.50;99.90;;;;;;5012307;28;20057;-56
2022/04/23 00:58:41;;;;;;;23.50;13.50;;;9.50;99.90;;;;;;5017759;28;20068;-58
2022/04/23 01:01:07;;;;;;;20.58;14.25;;;9.50;99.90;;;;;;5019925;28;20092;-58
2022/04/23 01:03:33;;;;;;;18.30;13.98;;;9.40;99.90;;;;;;5004472;28;20034;-59
2022/04/23 01:05:58;;;;;;;19.85;14.13;;;9.40;99.90;;;;;;5005204;28;20406;-59
2022/04/23 01:08:26;;;;;;;20.15;14.27;;;9.40;99.90;;;;;;5008671;28;20395;-59
2022/04/23 01:10:52;;;;;;;20.30;14.35;;;9.40;99.90;;;;;;5007407;28;20048;-57
2022/04/23 01:13:18;;;;;;;19.45;12.93;;;9.40;99.90;;;;;;5004380;28;20368;-60
2022/04/23 01:16:07;;;;;;;19.75;13.98;;;9.40;99.90;;;;;;5004367;28;20439;-58
2022/04/23 01:18:36;;;;;;;21.42;14.70;;;9.40;99.90;;;;;;5010250;28;20022;-60
2022/04/23 01:21:02;;;;;;;17.88;13.43;;;9.40;99.90;;;;;;5011317;28;20032;-58
2022/04/23 01:23:29;;;;;;;21.45;13.82;;;9.40;99.90;;;;;;5011132;28;20029;-60
2022/04/23 01:25:55;;;;;;;20.65;14.95;;;9.30;99.90;;;;;;5009668;28;20029;-57
2022/04/23 01:28:21;;;;;;;22.33;16.02;;;9.20;99.90;;;;;;5008353;28;20561;-55
2022/04/23 01:30:51;;;;;;;21.75;14.43;;;9.20;99.90;;;;;;5009588;28;20026;-59
2022/04/23 01:33:17;;;;;;;21.05;14.55;;;9.20;99.90;;;;;;5010396;28;20384;-56
2022/04/23 01:35:44;;;;;;;23.38;14.90;;;9.20;99.90;;;;;;5010773;28;20033;-57
2022/04/23 01:38:14;;;;;;;21.02;15.20;;;9.20;99.90;;;;;;5010365;28;20368;-57
2022/04/23 01:40:40;;;;;;;21.92;15.63;;;9.10;99.90;;;;;;5011762;28;20046;-56
2022/04/23 01:43:06;;;;;;;20.45;15.32;;;9.10;99.90;;;;;;5010156;28;20061;-59
2022/04/23 01:45:32;;;;;;;20.92;15.30;;;9.00;99.90;;;;;;5008785;28;20022;-57
2022/04/23 01:47:57;;;;;;;22.27;14.82;;;9.00;99.90;;;;;;5010642;28;20084;-54
2022/04/23 01:50:23;;;;;;;24.92;16.50;;;9.00;99.90;;;;;;5009461;28;20533;-57
2022/04/23 01:52:48;;;;;;;21.58;15.88;;;9.00;99.90;;;;;;5008557;28;20510;-55
2022/04/23 01:55:14;;;;;;;26.13;16.40;;;9.00;99.90;;;;;;5009765;28;20030;-53
2022/04/23 01:57:40;;;;;;;25.45;16.50;;;8.90;99.90;;;;;;5011089;28;20368;-56
2022/04/23 02:00:11;;;;;;;19.38;15.90;;;8.90;99.90;;;;;;5015547;28;20037;-55
2022/04/23 02:02:37;;;;;;;21.10;15.75;;;8.90;99.90;;;;;;5015118;28;20471;-57
2022/04/23 02:05:07;;;;;;;24.55;17.15;;;8.90;99.90;;;;;;5017111;28;20109;-57
2022/04/23 02:07:37;;;;;;;21.27;16.75;;;8.90;99.90;;;;;;5008820;28;20030;-57
2022/04/23 02:10:07;;;;;;;28.90;17.35;;;8.80;99.90;;;;;;5009942;28;20057;-55
2022/04/23 02:12:33;;;;;;;21.38;16.27;;;8.80;99.90;;;;;;5009531;28;20123;-56
2022/04/23 02:14:59;;;;;;;22.00;15.85;;;8.70;99.90;;;;;;5009191;28;20558;-56
2022/04/23 02:17:40;;;;;;;23.60;16.80;;;8.70;99.90;;;;;;5008783;28;20103;-56
2022/04/23 02:20:08;;;;;;;24.65;17.00;;;8.70;99.90;;;;;;5006367;28;20085;-57
2022/04/23 02:22:34;;;;;;;25.25;18.25;;;8.60;99.90;;;;;;5009801;28;20280;-53
2022/04/23 02:25:00;;;;;;;27.95;17.77;;;8.60;99.90;;;;;;5010225;28;20034;-56
2022/04/23 02:27:26;;;;;;;21.50;16.67;;;8.60;99.90;;;;;;5009814;28;20022;-57
2022/04/23 02:29:52;;;;;;;22.63;17.17;;;8.60;99.90;;;;;;5007887;28;20037;-57
2022/04/23 02:32:18;;;;;;;27.52;17.15;;;8.60;99.90;;;;;;5012165;28;20018;-58
2022/04/23 02:34:44;;;;;;;22.88;16.45;;;8.50;99.90;;;;;;5011031;28;20022;-57
2022/04/23 02:37:11;;;;;;;22.58;16.10;;;8.40;99.90;;;;;;5010961;28;20029;-58
2022/04/23 02:39:36;;;;;;;20.88;16.80;;;8.40;99.90;;;;;;5009677;28;20113;-57
2022/04/23 02:42:02;;;;;;;26.15;16.73;;;8.40;99.90;;;;;;5010382;28;20033;-57
2022/04/23 02:44:28;;;;;;;22.48;16.83;;;8.30;99.90;;;;;;5008630;28;20030;-60
2022/04/23 02:46:53;;;;;;;24.23;16.35;;;8.30;99.90;;;;;;5005438;28;20044;-57
2022/04/23 02:49:19;;;;;;;25.35;17.30;;;8.30;99.90;;;;;;5015427;28;20050;-56
2022/04/23 02:51:44;;;;;;;25.70;18.30;;;8.30;99.90;;;;;;5011138;28;20081;-59
2022/04/23 02:54:12;;;;;;;27.50;18.05;;;8.30;99.90;;;;;;5010075;28;20632;-57
2022/04/23 02:56:38;;;;;;;26.80;17.30;;;8.30;99.90;;;;;;5006303;28;20026;-58
2022/04/23 02:59:05;;;;;;;26.02;17.15;;;8.20;99.90;;;;;;5009338;28;20379;-56
2022/04/23 03:01:31;;;;;;;22.98;17.48;;;8.20;99.90;;;;;;5009382;28;20026;-58
2022/04/23 03:03:58;;;;;;;25.55;16.95;;;8.20;99.90;;;;;;5009493;28;20371;-59
2022/04/23 03:06:28;;;;;;;22.58;16.25;;;8.10;99.90;;;;;;5009395;28;20033;-57
2022/04/23 03:08:55;;;;;;;27.10;18.25;;;8.10;99.90;;;;;;5006105;28;20446;-58
2022/04/23 03:11:22;;;;;;;23.30;16.75;;;8.10;99.90;;;;;;5009953;28;20021;-57
2022/04/23 03:13:47;;;;;;;24.58;17.58;;;8.10;99.90;;;;;;5009900;28;20072;-59
2022/04/23 03:16:13;;;;;;;24.83;17.45;;;8.20;99.90;;;;;;5004361;28;20132;-57
2022/04/23 03:18:38;;;;;;;24.55;18.20;;;8.30;99.90;;;;;;5007119;28;20468;-59
2022/04/23 03:21:04;;;;;;;22.05;16.35;;;8.30;99.90;;;;;;5010465;28;20057;-58
2022/04/23 03:23:29;;;;;;;22.23;16.52;;;8.40;99.90;;;;;;5008852;28;20114;-58
2022/04/23 03:25:55;;;;;;;24.38;16.85;;;8.40;99.90;;;;;;5009190;28;20104;-55
2022/04/23 03:28:20;;;;;;;26.52;16.60;;;8.40;99.90;;;;;;5008962;28;20057;-59
2022/04/23 03:30:47;;;;;;;27.63;16.27;;;8.40;99.90;;;;;;5008696;28;20066;-58
2022/04/23 03:33:13;;;;;;;21.58;16.20;;;8.40;99.90;;;;;;5008283;28;20176;-58
2022/04/23 03:35:39;;;;;;;25.05;16.08;;;8.40;99.90;;;;;;5008957;28;20467;-58
2022/04/23 03:38:04;;;;;;;25.15;16.73;;;8.30;99.90;;;;;;5008552;28;20034;-57
2022/04/23 03:40:30;;;;;;;22.92;16.65;;;8.30;99.90;;;;;;5009236;28;20061;-59
2022/04/23 03:42:56;;;;;;;23.17;15.85;;;8.40;99.90;;;;;;5009392;28;20041;-57
2022/04/23 03:45:22;;;;;;;21.02;15.48;;;8.40;99.90;;;;;;5008308;28;20033;-55
2022/04/23 03:47:48;;;;;;;22.42;15.88;;;8.40;99.90;;;;;;5010206;28;20026;-57
2022/04/23 03:50:15;;;;;;;27.17;17.05;;;8.40;99.90;;;;;;5005985;28;20034;-59
2022/04/23 03:52:41;;;;;;;22.48;17.00;;;8.40;99.90;;;;;;5009454;28;20551;-58
2022/04/23 03:55:07;;;;;;;25.63;16.50;;;8.40;99.90;;;;;;5008570;28;20105;-58
2022/04/23 03:57:46;;;;;;;24.90;17.45;;;8.30;99.90;;;;;;5011001;28;20048;-57
2022/04/23 04:00:13;;;;;;;24.92;16.67;;;8.30;99.90;;;;;;5011599;28;20095;-56
2022/04/23 04:02:39;;;;;;;23.83;16.58;;;8.20;99.90;;;;;;5012631;28;20437;-57
2022/04/23 04:05:05;;;;;;;25.42;17.58;;;8.20;99.90;;;;;;5012287;28;20080;-59
2022/04/23 04:07:30;;;;;;;21.77;17.40;;;8.20;99.90;;;;;;5013147;28;20026;-59
2022/04/23 04:09:56;;;;;;;25.58;16.77;;;8.10;99.90;;;;;;5012465;28;20578;-56
2022/04/23 04:12:21;;;;;;;24.88;17.20;;;8.10;99.90;;;;;;5011419;28;20029;-56
2022/04/23 04:14:47;;;;;;;25.15;17.88;;;8.10;99.90;;;;;;5012630;28;20040;-58
2022/04/23 04:17:15;;;;;;;25.27;18.63;;;8.10;99.90;;;;;;5011868;28;20053;-57
2022/04/23 04:19:41;;;;;;;26.20;17.98;;;8.00;99.90;;;;;;5008878;28;20022;-56
2022/04/23 04:22:08;;;;;;;23.40;16.90;;;8.00;99.90;;;;;;5010552;28;20026;-58
2022/04/23 04:24:35;;;;;;;28.88;18.10;;;7.90;99.90;;;;;;5012865;28;20030;-54
2022/04/23 04:27:01;;;;;;;27.63;18.30;;;7.90;99.90;;;;;;4996171;28;20041;-56
2022/04/23 04:29:27;;;;;;;28.67;19.02;;;7.90;99.90;;;;;;5012160;28;20087;-55
2022/04/23 04:31:52;;;;;;;24.83;17.60;;;8.00;99.90;;;;;;5011583;28;20452;-51
2022/04/23 04:34:21;;;;;;;28.42;18.13;;;8.00;99.90;;;;;;5011543;28;20102;-60
2022/04/23 04:36:48;;;;;;;26.85;17.25;;;8.10;99.90;;;;;;5012076;28;20165;-59
2022/04/23 04:39:15;;;;;;;24.30;16.88;;;8.10;99.90;;;;;;5011961;28;20084;-57
2022/04/23 04:41:41;;;;;;;25.40;17.10;;;8.20;99.90;;;;;;5008092;28;20542;-59
2022/04/23 04:44:07;;;;;;;25.48;17.25;;;8.20;99.90;;;;;;5009802;28;20391;-59
2022/04/23 04:46:34;;;;;;;25.83;18.67;;;8.10;99.90;;;;;;5010006;28;20502;-58
2022/04/23 04:49:01;;;;;;;23.15;17.15;;;8.10;99.90;;;;;;5008022;28;20037;-58
2022/04/23 04:51:27;;;;;;;25.75;17.38;;;8.10;99.90;;;;;;5012274;28;20510;-58
2022/04/23 04:53:53;;;;;;;27.73;18.52;;;8.20;99.90;;;;;;5009498;28;20026;-58
2022/04/23 04:56:18;;;;;;;26.83;18.27;;;8.30;99.90;;;;;;5012316;28;20025;-57
2022/04/23 04:58:45;;;;;;;24.48;18.27;;;8.40;99.90;;;;;;5011571;28;20030;-57
2022/04/23 05:01:11;;;;;;;23.25;17.33;;;8.50;99.90;;;;;;5011244;28;20057;-58
2022/04/23 05:03:36;;;;;;;23.38;17.67;;;8.60;99.90;;;;;;5010189;28;20491;-59
2022/04/23 05:06:02;;;;;;;24.08;16.90;;;8.80;99.90;;;;;;5011556;28;20058;-60
2022/04/23 05:08:28;;;;;;;22.50;16.88;;;8.90;99.90;;;;;;5010472;28;20162;-58
2022/04/23 05:10:53;;;;;;;22.77;16.00;;;9.10;99.90;;;;;;5009705;28;20075;-57
2022/04/23 05:13:19;;;;;;;26.42;16.63;;;9.40;99.90;;;;;;5010185;28;20021;-57
2022/04/23 05:15:48;;;;;;;21.73;16.27;;;9.70;99.90;;;;;;5007426;28;20030;-59
2022/04/23 05:18:14;;;;;;;20.40;15.38;;;9.90;99.90;;;;;;5008720;28;20021;-60
2022/04/23 05:20:40;;;;;;;22.42;15.82;;;10.00;99.90;;;;;;5007683;28;20398;-58
2022/04/23 05:23:06;;;;;;;20.85;15.13;;;10.40;99.90;;;;;;5010169;28;20092;-57
2022/04/23 05:25:32;;;;;;;21.20;14.57;;;10.70;99.90;;;;;;5011328;28;20025;-61
2022/04/23 05:27:58;;;;;;;19.30;13.60;;;11.40;99.90;;;;;;5010884;28;20064;-60
2022/04/23 05:30:24;;;;;;;19.48;13.40;;;12.20;99.90;;;;;;5010604;28;20051;-60
2022/04/23 05:32:49;;;;;;;17.60;13.30;;;13.00;99.90;;;;;;5008893;28;20018;-57
2022/04/23 05:35:15;;;;;;;16.83;13.25;;;13.80;99.50;;;;;;5009462;28;20403;-59
2022/04/23 05:37:40;;;;;;;22.08;14.30;;;14.10;98.80;;;;;;5010417;28;20490;-60
2022/04/23 05:40:07;;;;;;;19.40;14.18;;;14.70;97.60;;;;;;5010947;28;20360;-61
2022/04/23 05:42:33;;;;;;;18.63;14.07;;;15.30;96.80;;;;;;5010143;28;20026;-60
2022/04/23 05:44:58;;;;;;;17.85;14.10;;;15.50;95.50;;;;;;5011211;28;20026;-61
2022/04/23 05:47:24;;;;;;;17.02;13.75;;;15.10;95.60;;;;;;5009906;28;20521;-59
2022/04/23 05:49:50;;;;;;;17.27;11.85;;;15.10;96.00;;;;;;5009353;28;20418;-59
2022/04/23 05:52:15;;;;;;;17.65;13.65;;;15.40;96.10;;;;;;5010887;28;20471;-60
2022/04/23 05:54:40;;;;;;;14.02;12.05;;;15.60;95.00;;;;;;5009180;28;20490;-60
2022/04/23 05:57:06;;;;;;;17.83;11.93;;;16.20;94.20;;;;;;5011328;28;20037;-60
2022/04/23 05:59:32;;;;;;;15.25;11.98;;;16.60;93.20;;;;;;5009447;28;20045;-59
2022/04/23 06:01:58;;;;;;;16.38;11.75;;;16.60;93.00;;;;;;5011554;28;20026;-59
2022/04/23 06:04:23;;;;;;;16.45;12.60;;;17.00;91.50;;;;;;5010462;28;20037;-60
2022/04/23 06:06:49;;;;;;;15.63;13.38;;;17.40;91.00;;;;;;5009112;28;20044;-60
2022/04/23 06:09:15;;;;;;;14.57;12.02;;;17.60;90.80;;;;;;5010825;28;20114;-59
2022/04/23 06:11:40;;;;;;;15.00;12.48;;;18.00;90.40;;;;;;5009655;28;20045;-60
2022/04/23 06:14:06;;;;;;;15.65;11.55;;;17.70;89.40;;;;;;5010460;28;20037;-60
2022/04/23 06:16:31;;;;;;;16.20;12.02;;;17.60;90.40;;;;;;5009278;28;20042;-58
2022/04/23 06:18:57;;;;;;;16.63;12.32;;;17.70;90.20;;;;;;5009973;28;20080;-58
2022/04/23 06:21:22;;;;;;;14.45;11.68;;;18.20;88.80;;;;;;5008515;28;20478;-58
2022/04/23 06:23:48;;;;;;;16.95;11.25;;;18.60;88.80;;;;;;5009933;28;20030;-58
2022/04/23 06:26:14;;;;;;;18.13;11.90;;;19.10;85.60;;;;;;5009207;28;20080;-59
2022/04/23 06:28:39;;;;;;;13.70;10.27;;;19.50;84.20;;;;;;5009573;28;20028;-60
2022/04/23 06:31:05;;;;;;;14.18;11.02;;;19.50;83.30;;;;;;5009989;28;20491;-59
2022/04/23 06:33:30;;;;;;;14.13;10.73;;;19.40;83.90;;;;;;5007471;28;20506;-57
2022/04/23 06:35:56;;;;;;;13.30;11.32;;;19.50;82.80;;;;;;5010725;28;20038;-60
2022/04/23 06:38:21;;;;;;;13.55;10.68;;;19.70;82.80;;;;;;5009174;28;20037;-58
2022/04/23 06:40:47;;;;;;;12.52;10.52;;;20.00;82.10;;;;;;5003486;28;20445;-57
2022/04/23 06:43:13;;;;;;;11.43;9.45;;;19.70;80.10;;;;;;5006829;28;20022;-61
2022/04/23 06:45:39;;;;;;;11.55;9.43;;;19.90;81.90;;;;;;5007211;28;20025;-58
2022/04/23 06:48:05;;;;;;;12.00;10.75;;;20.40;80.80;;;;;;5010134;28;20402;-59
2022/04/23 06:50:36;;;;;;;13.45;10.68;;;19.90;79.30;;;;;;5009407;28;20044;-59
2022/04/23 06:53:03;;;;;;;11.25;10.07;;;19.40;81.30;;;;;;5010813;28;20052;-58
2022/04/23 06:55:30;;;;;;;11.25;9.40;;;20.10;79.80;;;;;;5008431;28;20026;-61
2022/04/23 06:57:56;;;;;;;13.20;9.30;;;20.50;79.50;;;;;;5008612;28;20084;-61
2022/04/23 07:00:22;;;;;;;13.25;10.60;;;19.90;78.80;;;;;;4980340;28;20495;-60
2022/04/23 07:02:51;;;;;;;12.40;9.18;;;19.70;79.40;;;;;;4985835;28;20105;-60
2022/04/23 07:05:17;;;;;;;11.32;9.52;;;19.90;80.00;;;;;;4988014;28;20050;-59
2022/04/23 07:07:59;;;;;;;11.30;10.02;;;20.20;77.60;;;;;;4990105;28;20431;-59
2022/04/23 07:10:26;;;;;;;13.65;8.68;;;20.30;78.20;;;;;;4987224;28;20069;-55
2022/04/23 07:12:53;;;;;;;9.88;8.65;;;20.70;77.00;;;;;;4989444;28;20030;-61
2022/04/23 07:15:22;;;;;;;12.52;9.30;;;20.60;76.60;;;;;;4988437;28;20030;-60
2022/04/23 07:17:49;;;;;;;12.70;9.18;;;21.30;76.50;;;;;;4990303;28;20027;-60
2022/04/23 07:20:16;;;;;;;10.95;8.73;;;21.00;75.60;;;;;;4988218;28;20478;-59
2022/04/23 07:24:02;;;;;;;11.13;8.38;;;21.20;75.40;;;;;;4984105;28;20026;-61
2022/04/23 07:25:28;;;;;;;10.27;8.60;;;21.50;74.40;;;;;;4987876;28;20419;-60
2022/04/23 07:27:54;;;;;;;12.98;9.38;;;21.30;74.10;;;;;;4989247;28;20026;-61
2022/04/23 07:30:19;;;;;;;11.35;9.23;;;21.00;73.10;;;;;;4987676;28;20109;-59
2022/04/23 07:32:45;;;;;;;10.38;8.80;;;20.80;73.70;;;;;;4986557;28;20494;-59
2022/04/23 07:37:55;;;;;;;15.55;9.05;;;20.40;74.80;;;;;;4993494;28;20093;-59
2022/04/23 07:40:21;;;;;;;11.55;8.25;;;20.10;75.40;;;;;;4991974;28;20092;-59
2022/04/23 07:42:47;;;;;;;13.02;8.93;;;20.40;75.70;;;;;;4992655;28;20117;-61
2022/04/23 07:45:12;;;;;;;10.77;8.50;;;20.30;74.60;;;;;;4991513;28;20528;-56
2022/04/23 07:47:38;;;;;;;17.70;8.85;;;20.60;74.70;;;;;;4990134;28;20030;-60
2022/04/23 07:50:04;;;;;;;11.00;8.38;;;21.00;74.20;;;;;;4991658;28;20260;-61
2022/04/23 07:52:30;;;;;;;10.50;8.38;;;21.50;71.90;;;;;;4993438;28;20101;-60
2022/04/23 07:54:56;;;;;;;10.05;7.53;;;21.30;72.20;;;;;;4991123;28;20038;-59
2022/04/23 07:57:23;;;;;;;10.68;8.20;;;21.50;74.50;;;;;;4992645;28;20052;-61
2022/04/23 07:59:49;;;;;;;10.45;8.65;;;22.30;71.40;;;;;;4993219;28;20495;-60
2022/04/23 08:02:15;;;;;;;12.98;8.85;;;22.80;70.50;;;;;;4991187;28;20061;-58
2022/04/23 08:04:40;;;;;;;11.05;8.50;;;23.10;70.50;;;;;;5012573;28;20088;-57
2022/04/23 08:07:06;;;;;;;13.02;8.13;;;23.40;69.10;;;;;;5006633;28;20042;-59
2022/04/23 08:09:37;;;;;;;10.63;8.55;;;23.70;68.00;;;;;;5010847;28;20049;-60
2022/04/23 08:12:06;;;;;;;9.10;8.15;;;23.80;67.10;;;;;;5009401;28;20398;-59
2022/04/23 08:14:31;;;;;;;13.63;8.68;;;23.60;67.20;;;;;;5012035;28;20072;-56
2022/04/23 08:16:57;;;;;;;9.93;8.05;;;23.60;67.90;;;;;;5010591;28;20054;-58
2022/04/23 08:19:23;;;;;;;12.32;8.35;;;23.30;66.80;;;;;;5009978;28;20029;-56
2022/04/23 08:21:48;;;;;;;7.80;7.00;;;23.40;67.30;;;;;;5010822;28;20026;-59
2022/04/23 08:24:14;;;;;;;13.35;7.85;;;23.90;65.90;;;;;;5008623;28;20107;-57
2022/04/23 08:26:39;;;;;;;10.10;7.25;;;23.30;66.50;;;;;;5011325;28;20029;-58
2022/04/23 08:31:49;;;;;;;9.07;6.55;;;22.60;67.10;;;;;;5011814;28;20501;-55
2022/04/23 08:34:15;;;;;;;9.18;6.70;;;22.10;68.40;;;;;;5011580;28;20105;-60
2022/04/23 08:36:41;;;;;;;8.00;6.35;;;22.60;68.00;;;;;;5007279;28;20023;-57
2022/04/23 08:39:07;;;;;;;8.07;6.68;;;22.50;68.50;;;;;;5012528;28;20109;-61
2022/04/23 08:41:34;;;;;;;8.45;5.55;;;23.00;66.90;;;;;;5011123;28;20060;-61
2022/04/23 08:44:07;;;;;;;9.25;7.03;;;23.20;67.00;;;;;;5010308;28;20018;-60
2022/04/23 08:46:35;;;;;;;7.65;6.57;;;22.40;66.40;;;;;;5010376;28;20383;-59
2022/04/23 08:49:10;;;;;;;8.07;7.03;;;22.20;67.30;;;;;;5011226;28;20032;-61
2022/04/23 08:51:37;;;;;;;11.30;7.47;;;22.20;67.20;;;;;;5010747;28;20022;-58
2022/04/23 08:54:08;;;;;;;12.73;6.28;;;22.00;68.10;;;;;;5010766;28;20022;-60
2022/04/23 08:56:35;;;;;;;9.68;6.82;;;22.30;67.00;;;;;;5009630;28;20029;-59
2022/04/23 08:59:00;;;;;;;8.55;7.13;;;23.00;67.70;;;;;;5011238;28;20026;-59
2022/04/23 09:01:30;;;;;;;8.23;7.32;;;23.20;66.80;;;;;;4995456;28;20038;-61
2022/04/23 09:03:56;;;;;;;9.63;7.35;;;22.90;67.20;;;;;;5011402;28;20022;-59
2022/04/23 09:06:21;;;;;;;10.07;7.15;;;23.70;65.30;;;;;;5009318;28;20101;-59
2022/04/23 09:09:25;;;;;;;7.78;6.82;;;23.60;65.40;;;;;;5008097;28;20495;-60
2022/04/23 09:11:56;;;;;;;;;;;23.30;66.40;;;;;;4969427;28;20038;-60
2022/04/23 09:14:23;;;;;;;16.35;6.78;;;23.10;64.80;;;;;;4971700;28;19918;-58
2022/04/23 09:25:04;;;;;;;11.48;6.40;;;23.40;65.80;;;;;;5009587;28;20041;-58
2022/04/23 09:27:31;;;;;;;8.30;6.63;;;23.60;65.70;;;;;;5007028;28;20034;-60
2022/04/23 09:29:58;;;;;;;9.88;5.85;;;23.10;65.30;;;;;;5010109;28;20034;-58
2022/04/23 09:32:24;;;;;;;7.47;6.22;;;22.80;65.90;;;;;;5010383;28;20029;-59
2022/04/23 09:35:03;;;;;;;8.32;6.25;;;22.50;65.70;;;;;;5007672;28;20522;-61
2022/04/23 09:40:18;;;;;;;8.68;5.78;;;22.80;67.40;;;;;;5008865;28;20044;-58
2022/04/23 09:42:57;;;;;;;11.20;7.57;;;23.10;66.30;;;;;;5009281;28;20037;-58
2022/04/23 09:45:29;;;;;;;8.77;7.70;;;22.40;66.00;;;;;;5007808;28;20608;-58
2022/04/23 09:48:04;;;;;;;8.10;6.65;;;22.60;65.80;;;;;;5008632;28;20085;-58
2022/04/23 09:50:39;;;;;;;12.32;6.88;;;22.10;66.70;;;;;;5008949;28;20030;-57
2022/04/23 09:53:18;;;;;;;11.05;7.15;;;22.00;67.60;;;;;;5008100;28;20025;-59
2022/04/23 09:55:45;;;;;;;8.90;7.20;;;22.30;66.80;;;;;;5008547;28;20092;-58
2022/04/23 09:58:13;;;;;;;10.35;7.65;;;22.10;67.80;;;;;;5010103;28;20053;-59
2022/04/23 10:00:47;;;;;;;14.45;8.77;;;21.80;68.50;;;;;;4992759;28;20030;-58
2022/04/23 10:03:13;;;;;;;11.00;8.52;;;21.20;68.00;;;;;;5008059;28;20045;-59
2022/04/23 10:05:49;;;;;;;15.15;10.48;;;20.40;71.20;;;;;;5008994;28;20029;-59
2022/04/23 10:08:17;;;;;;;10.95;8.68;;;20.70;71.10;;;;;;5003860;28;20042;-55
2022/04/23 10:10:49;;;;;;;11.82;9.80;;;20.60;71.70;;;;;;5007595;28;20034;-59
2022/04/23 10:13:18;;;;;;;12.85;10.63;;;20.70;71.10;;;;;;5025614;28;20030;-59
2022/04/23 10:15:46;;;;;;;14.05;10.30;;;20.50;69.90;;;;;;5004081;28;20036;-58
2022/04/23 10:18:12;;;;;;;10.63;8.52;;;20.10;70.70;;;;;;5010828;28;20502;-58
2022/04/23 10:20:40;;;;;;;13.95;9.30;;;20.30;73.00;;;;;;5007065;28;20084;-61
2022/04/23 10:23:31;;;;;;;13.80;10.82;;;19.80;71.30;;;;;;5005715;28;20030;-58
2022/04/23 10:26:34;;;;;;;11.50;9.90;;;19.50;72.50;;;;;;5008800;28;20068;-55
2022/04/23 10:29:09;;;;;;;14.87;9.80;;;19.40;72.30;;;;;;5009401;28;20553;-57
2022/04/23 10:31:35;;;;;;;11.40;9.52;;;19.30;72.20;;;;;;5007507;28;20029;-59
2022/04/23 10:34:00;;;;;;;11.98;10.05;;;19.20;73.10;;;;;;5004080;28;20446;-60
2022/04/23 10:36:27;;;;;;;12.32;10.55;;;19.20;73.30;;;;;;5008716;28;20037;-60
2022/04/23 10:39:19;;;;;;;13.10;10.20;;;19.20;73.30;;;;;;5008978;28;20032;-59
2022/04/23 10:41:45;;;;;;;14.50;9.90;;;18.70;73.40;;;;;;5009446;28;20034;-56
2022/04/23 10:44:12;;;;;;;15.45;11.23;;;18.40;74.10;;;;;;5008454;28;20037;-60
2022/04/23 10:46:38;;;;;;;11.95;9.25;;;18.10;75.10;;;;;;5009313;28;20022;-56
2022/04/23 10:49:13;;;;;;;11.07;9.82;;;18.30;77.30;;;;;;5008112;28;20491;-57
2022/04/23 10:52:04;;;;;;;13.38;10.13;;;18.50;75.00;;;;;;5009635;28;20092;-57
2022/04/23 10:54:39;;;;;;;11.88;9.05;;;18.60;73.70;;;;;;5008327;28;20030;-54
2022/04/23 10:57:10;;;;;;;14.40;10.57;;;18.50;74.60;;;;;;5009155;28;20392;-60
2022/04/23 10:59:49;;;;;;;14.32;9.45;;;18.60;73.70;;;;;;5009233;28;20083;-55
2022/04/23 11:02:24;;;;;;;14.40;9.48;;;18.50;75.20;;;;;;4977955;28;20042;-58
2022/04/23 11:13:27;;;;;;;9.75;7.93;;;18.80;75.00;;;;;;4992431;28;20124;-59
2022/04/23 11:16:13;;;;;;;12.88;9.00;;;19.30;75.30;;;;;;4992862;28;20164;-59
2022/04/23 11:18:40;;;;;;;14.63;8.77;;;19.90;72.80;;;;;;4994749;28;20026;-60
2022/04/23 11:21:15;;;;;;;9.63;8.02;;;20.10;72.20;;;;;;4994145;28;20454;-59
2022/04/23 11:23:45;;;;;;;13.30;10.75;;;20.20;71.90;;;;;;4994896;28;20061;-61
2022/04/23 11:26:15;;;;;;;15.18;8.77;;;19.60;71.00;;;;;;4991129;28;20065;-60
2022/04/23 11:28:41;;;;;;;10.77;8.40;;;19.20;73.30;;;;;;4990947;28;20175;-60
2022/04/23 11:31:15;;;;;;;15.77;9.60;;;19.40;73.40;;;;;;4989418;28;20441;-59
2022/04/23 11:33:51;;;;;;;11.85;9.48;;;19.40;72.40;;;;;;4988028;28;20037;-61
2022/04/23 11:36:18;;;;;;;13.43;9.30;;;19.30;72.70;;;;;;4992423;28;20120;-59
2022/04/23 11:38:44;;;;;;;10.75;9.45;;;19.30;72.50;;;;;;4993745;28;20031;-58
2022/04/23 11:41:10;;;;;;;10.65;9.10;;;19.10;73.90;;;;;;4991722;28;20475;-58
2022/04/23 11:43:37;;;;;;;12.65;9.35;;;19.20;73.50;;;;;;4993405;28;20034;-60
2022/04/23 11:46:07;;;;;;;12.90;10.25;;;19.20;72.50;;;;;;4990589;28;20480;-56
2022/04/23 11:48:48;;;;;;;11.27;9.20;;;19.20;74.10;;;;;;4991939;28;20026;-60
2022/04/23 11:51:19;;;;;;;11.63;9.73;;;19.10;73.50;;;;;;4988419;28;20026;-60
2022/04/23 11:53:52;;;;;;;14.60;10.73;;;19.20;73.10;;;;;;4993736;28;20026;-61
2022/04/23 11:56:44;;;;;;;12.10;10.52;;;19.20;73.00;;;;;;4990556;28;20781;-58
2022/04/23 11:59:11;;;;;;;14.68;10.82;;;19.30;74.20;;;;;;4986259;28;20089;-58
2022/04/23 12:01:41;;;;;;;15.65;11.05;;;18.90;74.30;;;;;;4976345;28;20038;-60
2022/04/23 12:04:07;;;;;;;16.85;12.60;;;18.80;75.30;;;;;;4993345;28;20034;-58
2022/04/23 12:06:45;;;;;;;14.15;10.70;;;18.90;74.30;;;;;;4991488;28;20045;-58
2022/04/23 12:09:11;;;;;;;11.93;8.70;;;19.10;75.10;;;;;;4992057;28;20022;-59
2022/04/23 12:11:37;;;;;;;13.95;10.90;;;19.00;73.60;;;;;;4990855;28;20030;-58
2022/04/23 12:14:04;;;;;;;16.20;12.18;;;19.00;74.60;;;;;;4987075;28;20022;-59
2022/04/23 12:16:33;;;;;;;21.15;13.35;;;19.00;75.00;;;;;;4988196;28;20030;-58
2022/04/23 12:18:59;;;;;;;14.98;11.63;;;18.80;74.40;;;;;;4995664;28;20557;-58
2022/04/23 12:21:25;;;;;;;15.90;11.93;;;18.60;74.80;;;;;;4992282;28;20030;-58
2022/04/23 12:23:50;;;;;;;17.35;13.18;;;18.60;75.50;;;;;;4993216;28;20041;-60
2022/04/23 12:26:19;;;;;;;16.90;12.43;;;18.10;75.90;;;;;;4986867;28;20065;-61
2022/04/23 12:42:23;;;;;;;;;;;18.50;77.40;;;;;;5001736;28;20452;-59
2022/04/23 12:44:51;;;;;;;19.10;13.07;;;18.50;76.30;;;;;;4995248;28;19996;-59
2022/04/23 12:47:26;;;;;;;16.17;10.93;;;18.50;76.00;;;;;;4992077;28;20030;-60
2022/04/23 12:49:58;;;;;;;17.35;13.40;;;18.70;78.40;;;;;;4981287;28;20054;-58
2022/04/23 12:52:26;;;;;;;17.17;13.85;;;18.80;76.70;;;;;;4989087;28;20113;-56
2022/04/23 12:55:18;;;;;;;23.55;13.38;;;18.50;76.50;;;;;;4991616;28;20057;-61
2022/04/23 12:57:48;;;;;;;23.85;14.15;;;18.30;76.00;;;;;;4987544;28;20030;-61
2022/04/23 13:00:19;;;;;;;21.90;14.75;;;18.10;77.70;;;;;;4998006;28;20561;-61
2022/04/23 13:02:53;;;;;;;17.17;12.80;;;18.00;76.70;;;;;;4994024;28;20057;-61
2022/04/23 13:05:18;;;;;;;18.02;13.77;;;17.90;78.00;;;;;;4991855;28;20026;-58
2022/04/23 13:10:28;;;;;;;15.73;13.13;;;18.20;76.70;;;;;;4990968;28;20061;-59
2022/04/23 13:12:54;;;;;;;16.15;13.05;;;18.20;76.60;;;;;;4988975;28;20026;-59
2022/04/23 13:15:20;;;;;;;17.92;13.98;;;18.20;76.10;;;;;;4989833;28;20045;-59
2022/04/23 13:17:47;;;;;;;17.70;12.80;;;18.10;76.10;;;;;;4985867;28;20173;-54
2022/04/23 13:20:14;;;;;;;16.35;13.65;;;18.20;76.70;;;;;;4988124;28;20034;-57
2022/04/23 13:22:43;;;;;;;17.90;14.05;;;18.10;76.40;;;;;;4998055;28;20479;-58